Palm Springs (PSP/KPSP)

Map

Destinations

Information

Location
Palm Springs, CA
Local Time
15:20 / 3:20 pm
GMT Time
23:20 / 11:20 pm
Gates
9
No FAA reported delays
METAR KPSP 182253Z 11004KT 10SM CLR 24/03 A3006 RMK AO2 SLP177 T02440028
TAF KPSP 181738Z 1818/1918 VRB05KT P6SM SCT250